createdAt,value
2022-12-06T00:02:25.446Z,10.17
2022-12-06T00:04:52.116Z,10.25
2022-12-06T00:07:18.782Z,10.31
2022-12-06T00:09:45.454Z,10.20
2022-12-06T00:12:12.062Z,10.12
2022-12-06T00:14:38.709Z,10.24
2022-12-06T00:17:05.354Z,10.21
2022-12-06T00:19:32.017Z,10.23
2022-12-06T00:21:58.708Z,10.06
2022-12-06T00:24:25.376Z,9.99
2022-12-06T00:26:52.038Z,10.15
2022-12-06T00:29:18.680Z,9.97
2022-12-06T00:31:45.327Z,9.96
2022-12-06T00:34:12.012Z,9.84
2022-12-06T00:36:38.678Z,9.90
2022-12-06T00:39:05.314Z,9.73
2022-12-06T00:41:31.915Z,9.89
2022-12-06T00:43:58.587Z,9.78
2022-12-06T00:46:25.283Z,9.56
2022-12-06T00:48:52.042Z,9.64
2022-12-06T00:51:18.678Z,9.82
2022-12-06T00:53:45.317Z,9.56
2022-12-06T00:56:11.961Z,9.57
2022-12-06T00:58:38.591Z,9.55
2022-12-06T01:01:05.258Z,9.59
2022-12-06T01:03:35.117Z,9.64
2022-12-06T01:06:02.001Z,9.58
2022-12-06T01:08:28.654Z,9.19
2022-12-06T01:10:55.277Z,8.80
2022-12-06T01:13:21.895Z,8.57
2022-12-06T01:15:48.587Z,8.51
2022-12-06T01:18:15.175Z,8.34
2022-12-06T01:20:41.857Z,8.30
2022-12-06T01:23:08.483Z,8.50
2022-12-06T01:25:36.455Z,8.97
2022-12-06T01:28:03.318Z,9.12
2022-12-06T01:30:30.044Z,9.24
2022-12-06T01:32:56.718Z,9.46
2022-12-06T01:35:23.374Z,9.50
2022-12-06T01:37:50.018Z,9.58
2022-12-06T01:40:16.669Z,9.65
2022-12-06T01:42:43.295Z,9.68
2022-12-06T01:45:09.894Z,9.62
2022-12-06T01:47:36.581Z,9.42
2022-12-06T01:50:03.285Z,9.33
2022-12-06T01:52:29.927Z,9.40
2022-12-06T01:54:56.525Z,8.96
2022-12-06T01:57:23.183Z,8.99
2022-12-06T01:59:49.787Z,9.16
2022-12-06T02:02:16.509Z,9.29
2022-12-06T02:04:43.210Z,9.34
2022-12-06T02:07:09.913Z,9.30
2022-12-06T02:09:36.529Z,9.25
2022-12-06T02:12:03.143Z,9.41
2022-12-06T02:14:29.763Z,9.40
2022-12-06T02:16:56.515Z,9.43
2022-12-06T02:19:23.176Z,9.43
2022-12-06T02:21:49.819Z,9.44
2022-12-06T02:24:16.439Z,9.43
2022-12-06T02:26:43.032Z,9.42
2022-12-06T02:29:09.710Z,9.32
2022-12-06T02:31:36.347Z,9.18
2022-12-06T02:34:02.972Z,9.10
2022-12-06T02:36:29.560Z,9.03
2022-12-06T02:38:56.175Z,9.04
2022-12-06T02:41:22.765Z,9.04
2022-12-06T02:43:49.395Z,8.96
2022-12-06T02:46:16.128Z,8.91
2022-12-06T02:48:42.828Z,8.69
2022-12-06T02:51:09.464Z,8.62
2022-12-06T02:53:36.098Z,8.68
2022-12-06T02:56:02.756Z,8.68
2022-12-06T02:58:29.402Z,8.65
2022-12-06T03:00:56.029Z,8.57
2022-12-06T03:03:22.695Z,8.31
2022-12-06T03:05:49.376Z,8.34
2022-12-06T03:08:16.034Z,8.34
2022-12-06T03:10:42.752Z,8.37
2022-12-06T03:13:09.426Z,8.42
2022-12-06T03:15:36.182Z,8.52
2022-12-06T03:18:02.844Z,8.44
2022-12-06T03:20:29.512Z,8.37
2022-12-06T03:22:56.166Z,8.39
2022-12-06T03:25:22.792Z,8.41
2022-12-06T03:27:49.416Z,8.44
2022-12-06T03:30:16.034Z,8.42
2022-12-06T03:32:42.681Z,8.33
2022-12-06T03:35:09.351Z,8.31
2022-12-06T03:37:35.977Z,8.32
2022-12-06T03:40:02.814Z,8.26
2022-12-06T03:42:29.612Z,8.28
2022-12-06T03:44:56.231Z,8.25
2022-12-06T03:47:22.871Z,8.20
2022-12-06T03:49:49.561Z,8.27
2022-12-06T03:52:16.189Z,8.37
2022-12-06T03:54:42.803Z,8.34
2022-12-06T03:57:09.410Z,8.36
2022-12-06T03:59:36.022Z,8.34
2022-12-06T04:02:02.705Z,8.27
2022-12-06T04:04:29.445Z,8.25
2022-12-06T04:06:56.056Z,8.30
2022-12-06T04:09:22.714Z,8.43
2022-12-06T04:11:49.331Z,8.29
2022-12-06T04:14:15.957Z,8.38
2022-12-06T04:16:42.547Z,8.56
2022-12-06T04:19:09.204Z,8.63
2022-12-06T04:21:35.846Z,8.58
2022-12-06T04:24:02.516Z,8.62
2022-12-06T04:26:29.196Z,8.73
2022-12-06T04:28:55.799Z,8.60
2022-12-06T04:31:22.787Z,8.87
2022-12-06T04:33:49.478Z,8.81
2022-12-06T04:36:16.099Z,8.70
2022-12-06T04:38:42.697Z,8.67
2022-12-06T04:41:09.372Z,8.63
2022-12-06T04:43:36.059Z,8.61
2022-12-06T04:46:02.674Z,8.86
2022-12-06T04:48:29.323Z,8.97
2022-12-06T04:50:55.982Z,9.06
2022-12-06T04:53:22.642Z,9.11
2022-12-06T04:55:49.300Z,9.07
2022-12-06T04:58:15.922Z,9.06
2022-12-06T05:00:42.572Z,8.93
2022-12-06T05:03:09.217Z,8.99
2022-12-06T05:05:35.840Z,9.05
2022-12-06T05:08:02.529Z,9.14
2022-12-06T05:10:29.214Z,9.16
2022-12-06T05:12:55.913Z,9.13
2022-12-06T05:15:26.576Z,9.09
2022-12-06T05:17:55.800Z,9.03
2022-12-06T05:20:22.446Z,9.05
2022-12-06T05:22:49.064Z,9.14
2022-12-06T05:25:15.744Z,9.09
2022-12-06T05:27:42.407Z,9.09
2022-12-06T05:30:09.097Z,8.77
2022-12-06T05:32:35.705Z,8.69
2022-12-06T05:35:02.297Z,8.72
2022-12-06T05:37:28.946Z,8.67
2022-12-06T05:39:55.545Z,8.74
2022-12-06T05:42:22.752Z,8.95
2022-12-06T05:44:49.484Z,9.00
2022-12-06T05:47:16.084Z,9.15
2022-12-06T05:49:42.763Z,9.25
2022-12-06T05:52:09.381Z,9.28
2022-12-06T05:54:36.062Z,9.17
2022-12-06T05:57:02.721Z,9.28
2022-12-06T05:59:29.351Z,9.33
2022-12-06T06:01:56.008Z,9.39
2022-12-06T06:04:22.737Z,9.42
2022-12-06T06:06:49.381Z,9.47
2022-12-06T06:09:16.046Z,9.50
2022-12-06T06:11:42.683Z,9.41
2022-12-06T06:14:09.306Z,9.43
2022-12-06T06:16:35.987Z,9.63
2022-12-06T06:19:02.625Z,9.58
2022-12-06T06:21:29.275Z,9.56
2022-12-06T06:23:55.898Z,9.52
2022-12-06T06:26:22.530Z,9.55
2022-12-06T06:28:49.154Z,9.50
2022-12-06T06:31:15.737Z,9.36
2022-12-06T06:33:42.489Z,9.35
2022-12-06T06:36:09.076Z,9.38
2022-12-06T06:38:35.739Z,9.45
2022-12-06T06:41:02.344Z,9.50
2022-12-06T06:43:28.965Z,9.35
2022-12-06T06:45:55.677Z,9.46
2022-12-06T06:48:22.342Z,9.56
2022-12-06T06:50:53.935Z,9.53
2022-12-06T06:53:23.527Z,9.49
2022-12-06T06:55:50.132Z,9.26
2022-12-06T06:58:16.788Z,9.37
2022-12-06T07:00:43.448Z,9.46
2022-12-06T07:03:10.156Z,9.36
2022-12-06T07:05:36.859Z,9.45
2022-12-06T07:08:03.574Z,9.61
2022-12-06T07:10:30.337Z,9.75
2022-12-06T07:12:56.929Z,9.68
2022-12-06T07:15:23.599Z,9.65
2022-12-06T07:17:50.214Z,9.68
2022-12-06T07:20:16.822Z,9.71
2022-12-06T07:22:43.487Z,9.67
2022-12-06T07:25:10.126Z,9.70
2022-12-06T07:27:36.811Z,9.57
2022-12-06T07:30:03.684Z,9.60
2022-12-06T07:32:30.515Z,9.70
2022-12-06T07:34:57.176Z,9.71
2022-12-06T07:37:23.831Z,9.77
2022-12-06T07:39:50.495Z,9.65
2022-12-06T07:42:17.086Z,9.54
2022-12-06T07:44:43.772Z,9.72
2022-12-06T07:47:10.377Z,9.85
2022-12-06T07:49:37.019Z,9.83
2022-12-06T07:52:03.743Z,9.68
2022-12-06T07:54:30.422Z,9.68
2022-12-06T07:56:57.061Z,9.78
2022-12-06T07:59:23.697Z,9.96
2022-12-06T08:01:50.353Z,10.09
2022-12-06T08:04:17.113Z,10.22
2022-12-06T08:06:43.757Z,10.22
2022-12-06T08:09:10.398Z,10.18
2022-12-06T08:11:37.052Z,10.36
2022-12-06T08:14:03.701Z,10.42
2022-12-06T08:16:30.366Z,10.34
2022-12-06T08:18:57.079Z,10.51
2022-12-06T08:21:23.700Z,10.50
2022-12-06T08:23:50.387Z,10.59
2022-12-06T08:26:16.987Z,10.60
2022-12-06T08:28:43.676Z,10.66
2022-12-06T08:31:10.328Z,10.50
2022-12-06T08:33:37.033Z,10.55
2022-12-06T08:36:03.666Z,10.70
2022-12-06T08:38:30.255Z,10.54
2022-12-06T08:40:56.965Z,10.50
2022-12-06T08:43:23.614Z,10.83
2022-12-06T08:45:50.264Z,10.34
2022-12-06T08:48:17.219Z,10.59
2022-12-06T08:50:43.894Z,10.64
2022-12-06T08:53:10.483Z,11.01
2022-12-06T08:55:37.084Z,11.30
2022-12-06T08:58:03.733Z,11.24
2022-12-06T09:00:30.345Z,11.37
2022-12-06T09:02:56.937Z,11.28
2022-12-06T09:05:23.543Z,11.04
2022-12-06T09:07:50.369Z,10.93
2022-12-06T09:10:17.059Z,10.93
2022-12-06T09:12:43.819Z,10.94
2022-12-06T09:15:10.430Z,10.91
2022-12-06T09:17:37.029Z,11.12
2022-12-06T09:20:06.159Z,11.04
2022-12-06T09:22:33.234Z,10.92
2022-12-06T09:24:59.894Z,11.17
2022-12-06T09:27:26.534Z,11.20
2022-12-06T09:29:53.174Z,11.40
2022-12-06T09:32:19.821Z,11.38
2022-12-06T09:34:46.507Z,11.39
2022-12-06T09:37:13.166Z,11.27
2022-12-06T09:39:39.788Z,11.32
2022-12-06T09:42:06.457Z,11.43
2022-12-06T09:44:33.122Z,11.62
2022-12-06T09:46:59.854Z,11.76
2022-12-06T09:49:26.492Z,11.36
2022-12-06T09:51:53.168Z,11.52
2022-12-06T09:54:19.825Z,11.40
2022-12-06T09:56:46.446Z,11.38
2022-12-06T09:59:13.073Z,11.51
2022-12-06T10:01:39.752Z,11.76
2022-12-06T10:04:06.502Z,11.75
2022-12-06T10:06:33.155Z,11.53
2022-12-06T10:08:59.940Z,11.38
2022-12-06T10:11:26.742Z,11.63
2022-12-06T10:13:53.442Z,11.64
2022-12-06T10:16:20.197Z,12.02
2022-12-06T10:18:48.697Z,12.15
2022-12-06T10:21:15.361Z,11.71
2022-12-06T10:23:42.022Z,11.62
2022-12-06T10:26:08.687Z,12.18
2022-12-06T10:28:35.320Z,12.34
2022-12-06T10:31:02.063Z,12.34
2022-12-06T10:33:28.700Z,12.40
2022-12-06T10:35:55.359Z,12.60
2022-12-06T10:38:22.009Z,12.84
2022-12-06T10:40:48.621Z,13.01
2022-12-06T10:43:15.324Z,12.94
2022-12-06T10:45:41.957Z,12.96
2022-12-06T10:48:08.604Z,13.18
2022-12-06T10:50:35.247Z,12.86
2022-12-06T10:53:02.347Z,12.53
2022-12-06T10:55:29.095Z,12.83
2022-12-06T10:57:55.704Z,13.28
2022-12-06T11:00:22.618Z,13.38
2022-12-06T11:02:49.442Z,13.36
2022-12-06T11:05:16.063Z,13.42
2022-12-06T11:07:42.782Z,13.86
2022-12-06T11:10:09.494Z,14.15
2022-12-06T11:12:36.116Z,13.91
2022-12-06T11:15:02.772Z,14.10
2022-12-06T11:17:29.449Z,14.20
2022-12-06T11:19:56.051Z,13.72
2022-12-06T11:22:22.692Z,13.69
2022-12-06T11:24:49.372Z,13.71
2022-12-06T11:27:16.041Z,13.45
2022-12-06T11:29:42.714Z,12.77
2022-12-06T11:32:09.345Z,12.94
2022-12-06T11:34:35.990Z,12.69
2022-12-06T11:37:02.625Z,12.12
2022-12-06T11:39:29.299Z,11.13
2022-12-06T11:41:55.936Z,11.76
2022-12-06T11:44:22.556Z,12.43
2022-12-06T11:46:49.204Z,12.61
2022-12-06T11:49:15.857Z,12.17
2022-12-06T11:51:42.486Z,11.97
2022-12-06T11:54:09.079Z,11.77
2022-12-06T11:56:35.923Z,11.44
2022-12-06T11:59:02.630Z,10.48
2022-12-06T12:01:29.287Z,9.94
2022-12-06T12:03:55.914Z,11.06
2022-12-06T12:06:22.782Z,12.20
2022-12-06T12:08:49.411Z,12.65
2022-12-06T12:11:16.046Z,12.53
2022-12-06T12:13:42.729Z,12.71
2022-12-06T12:16:09.417Z,13.21
2022-12-06T12:18:36.082Z,13.04
2022-12-06T12:21:02.722Z,12.91
2022-12-06T12:23:29.362Z,13.18
2022-12-06T12:25:55.979Z,13.49
2022-12-06T12:28:22.635Z,13.53
2022-12-06T12:30:49.276Z,13.66
2022-12-06T12:33:15.962Z,12.77
2022-12-06T12:35:42.608Z,12.84
2022-12-06T12:38:09.221Z,12.78
2022-12-06T12:40:35.895Z,12.42
2022-12-06T12:43:02.510Z,11.85
2022-12-06T12:45:29.122Z,11.74
2022-12-06T12:47:55.709Z,11.71
2022-12-06T12:50:22.364Z,11.39
2022-12-06T12:52:49.039Z,10.90
2022-12-06T12:55:15.941Z,10.72
2022-12-06T12:57:42.634Z,9.98
2022-12-06T13:00:09.274Z,10.43
2022-12-06T13:02:36.015Z,10.04
2022-12-06T13:05:31.387Z,9.61
2022-12-06T13:07:49.446Z,9.55
2022-12-06T13:10:16.068Z,9.40
2022-12-06T13:12:42.700Z,9.43
2022-12-06T13:15:09.315Z,9.39
2022-12-06T13:17:35.937Z,9.43
2022-12-06T13:20:02.942Z,9.34
2022-12-06T13:22:29.708Z,9.42
2022-12-06T13:24:56.396Z,9.44
2022-12-06T13:27:23.094Z,10.01
2022-12-06T13:29:49.746Z,10.00
2022-12-06T13:32:16.384Z,10.23
2022-12-06T13:34:43.025Z,10.67
2022-12-06T13:37:09.647Z,11.02
2022-12-06T13:39:36.308Z,11.21
2022-12-06T13:42:02.933Z,11.34
2022-12-06T13:44:29.606Z,11.30
2022-12-06T13:46:56.235Z,11.47
2022-12-06T13:49:22.935Z,11.59
2022-12-06T13:51:49.528Z,11.31
2022-12-06T13:54:16.127Z,11.34
2022-12-06T13:56:42.778Z,11.20
2022-12-06T13:59:09.387Z,11.15
2022-12-06T14:01:39.913Z,11.10
2022-12-06T14:04:07.138Z,11.09
2022-12-06T14:06:33.807Z,11.15
2022-12-06T14:09:00.497Z,11.14
2022-12-06T14:11:27.161Z,11.29
2022-12-06T14:13:53.827Z,11.36
2022-12-06T14:16:20.528Z,11.09
2022-12-06T14:18:47.203Z,10.94
2022-12-06T14:21:13.863Z,11.04
2022-12-06T14:23:43.656Z,11.14
2022-12-06T14:26:10.469Z,10.96
2022-12-06T14:28:37.076Z,10.66
2022-12-06T14:31:03.745Z,9.64
2022-12-06T14:33:30.363Z,10.17
2022-12-06T14:35:57.005Z,9.83
2022-12-06T14:38:23.775Z,9.79
2022-12-06T14:40:50.923Z,9.92
2022-12-06T14:43:17.801Z,10.19
2022-12-06T14:45:44.467Z,10.01
2022-12-06T14:48:11.133Z,10.04
2022-12-06T14:50:37.754Z,10.36
2022-12-06T14:53:04.419Z,10.49
2022-12-06T14:55:31.095Z,10.30
2022-12-06T14:57:57.697Z,10.45
2022-12-06T15:00:27.436Z,10.57
2022-12-06T15:02:54.924Z,10.59
2022-12-06T15:05:21.582Z,10.48
2022-12-06T15:07:48.233Z,10.49
2022-12-06T15:10:14.925Z,10.47
2022-12-06T15:12:41.528Z,10.40
2022-12-06T15:15:08.181Z,10.30
2022-12-06T15:17:34.823Z,10.23
2022-12-06T15:20:01.796Z,10.23
2022-12-06T15:22:28.777Z,10.39
2022-12-06T15:24:55.500Z,10.39
2022-12-06T15:27:22.116Z,10.32
2022-12-06T15:29:48.779Z,10.29
2022-12-06T15:32:15.475Z,10.34
2022-12-06T15:34:42.090Z,10.46
2022-12-06T15:37:37.421Z,10.40
2022-12-06T15:39:55.384Z,10.35
2022-12-06T15:42:21.976Z,10.28
2022-12-06T15:44:49.736Z,9.94
2022-12-06T15:47:16.642Z,10.12
2022-12-06T15:49:43.272Z,10.12
2022-12-06T15:52:09.862Z,10.41
2022-12-06T15:54:36.534Z,10.43
2022-12-06T15:57:03.175Z,10.28
2022-12-06T15:59:29.786Z,10.16
2022-12-06T16:01:56.436Z,10.02
2022-12-06T16:04:23.138Z,10.11
2022-12-06T16:06:49.794Z,9.96
2022-12-06T16:09:16.425Z,9.93
2022-12-06T16:11:43.073Z,9.68
2022-12-06T16:14:09.712Z,9.79
2022-12-06T16:16:39.936Z,9.98
2022-12-06T16:19:09.891Z,10.10
2022-12-06T16:21:36.507Z,10.17
2022-12-06T16:24:18.435Z,10.20
2022-12-06T16:26:45.668Z,10.23
2022-12-06T16:29:12.550Z,10.17
2022-12-06T16:31:39.261Z,10.23
2022-12-06T16:34:06.008Z,10.04
2022-12-06T16:36:32.896Z,9.98
2022-12-06T16:39:00.204Z,10.05
2022-12-06T16:41:26.870Z,10.06
2022-12-06T16:43:53.502Z,10.08
2022-12-06T16:46:20.202Z,9.78
2022-12-06T16:48:49.994Z,9.49
2022-12-06T16:51:19.182Z,9.46
2022-12-06T16:53:45.807Z,9.54
2022-12-06T16:56:12.439Z,9.74
2022-12-06T17:01:23.480Z,9.44
2022-12-06T17:03:50.155Z,9.43
2022-12-06T17:06:16.898Z,9.50
2022-12-06T17:08:43.571Z,9.17
2022-12-06T17:11:10.261Z,9.00
2022-12-06T17:13:36.940Z,9.07
2022-12-06T17:16:03.613Z,9.34
2022-12-06T17:18:30.370Z,9.48
2022-12-06T17:20:57.026Z,9.31
2022-12-06T17:23:23.784Z,9.46
2022-12-06T17:25:50.391Z,9.43
2022-12-06T17:28:17.044Z,9.17
2022-12-06T17:30:49.334Z,9.40
2022-12-06T17:33:17.574Z,9.45
2022-12-06T17:35:44.205Z,9.39
2022-12-06T17:38:10.792Z,9.45
2022-12-06T17:40:37.457Z,9.33
2022-12-06T17:43:04.066Z,9.43
2022-12-06T17:45:30.819Z,9.57
2022-12-06T17:47:57.501Z,9.50
2022-12-06T17:50:24.175Z,9.44
2022-12-06T17:52:50.858Z,9.30
2022-12-06T17:55:17.479Z,9.26
2022-12-06T17:57:44.168Z,9.21
2022-12-06T18:00:10.870Z,9.27
2022-12-06T18:02:37.558Z,9.31
2022-12-06T18:05:04.573Z,9.33
2022-12-06T18:07:31.373Z,9.35
2022-12-06T18:09:58.117Z,9.41
2022-12-06T18:12:24.803Z,9.41
2022-12-06T18:14:51.402Z,9.33
2022-12-06T18:17:18.011Z,8.94
2022-12-06T18:19:44.702Z,8.89
2022-12-06T18:22:11.295Z,9.05
2022-12-06T18:24:37.921Z,8.69
2022-12-06T18:27:04.582Z,8.33
2022-12-06T18:29:31.247Z,8.55
2022-12-06T18:31:57.975Z,8.75
2022-12-06T18:34:24.697Z,8.49
2022-12-06T18:36:51.365Z,8.76
2022-12-06T18:39:18.039Z,8.74
2022-12-06T18:41:44.824Z,8.63
2022-12-06T18:44:11.769Z,8.72
2022-12-06T18:46:38.495Z,8.95
2022-12-06T18:49:05.138Z,8.94
2022-12-06T18:51:31.827Z,8.87
2022-12-06T18:53:58.476Z,8.64
2022-12-06T18:56:25.155Z,8.75
2022-12-06T18:58:51.762Z,8.48
2022-12-06T19:01:18.590Z,8.20
2022-12-06T19:03:45.367Z,8.34
2022-12-06T19:06:12.007Z,8.56
2022-12-06T19:08:38.670Z,8.42
2022-12-06T19:11:05.310Z,8.63
2022-12-06T19:13:31.928Z,8.74
2022-12-06T19:15:58.599Z,8.74
2022-12-06T19:18:25.268Z,8.78
2022-12-06T19:20:51.963Z,8.77
2022-12-06T19:23:18.579Z,8.87
2022-12-06T19:25:45.253Z,8.86
2022-12-06T19:28:12.935Z,8.79
2022-12-06T19:30:39.699Z,8.72
2022-12-06T19:33:06.411Z,8.63
2022-12-06T19:35:33.007Z,8.29
2022-12-06T19:37:59.669Z,8.12
2022-12-06T19:40:26.362Z,8.19
2022-12-06T19:42:52.970Z,8.16
2022-12-06T19:45:19.615Z,8.09
2022-12-06T19:47:46.222Z,8.04
2022-12-06T19:50:12.900Z,7.94
2022-12-06T19:52:39.573Z,7.87
2022-12-06T19:55:06.189Z,7.69
2022-12-06T19:57:32.783Z,7.23
2022-12-06T19:59:59.739Z,7.20
2022-12-06T20:02:26.742Z,7.31
2022-12-06T20:04:53.459Z,7.61
2022-12-06T20:07:20.064Z,7.75
2022-12-06T20:09:46.721Z,7.45
2022-12-06T20:12:13.393Z,7.35
2022-12-06T20:14:40.049Z,7.26
2022-12-06T20:17:06.698Z,7.30
2022-12-06T20:19:33.357Z,7.58
2022-12-06T20:22:00.056Z,7.88
2022-12-06T20:24:26.762Z,7.74
2022-12-06T20:26:53.375Z,7.67
2022-12-06T20:29:19.991Z,7.85
2022-12-06T20:31:46.624Z,7.87
2022-12-06T20:34:15.232Z,7.70
2022-12-06T20:36:42.158Z,7.74
2022-12-06T20:39:08.816Z,7.70
2022-12-06T20:41:35.491Z,7.62
2022-12-06T20:44:02.114Z,7.48
2022-12-06T20:46:28.809Z,7.48
2022-12-06T20:48:55.482Z,7.31
2022-12-06T20:51:22.089Z,6.99
2022-12-06T20:53:48.771Z,7.09
2022-12-06T20:56:15.390Z,7.31
2022-12-06T20:58:42.053Z,7.30
2022-12-06T21:01:08.796Z,7.31
2022-12-06T21:03:35.491Z,7.34
2022-12-06T21:06:02.165Z,7.18
2022-12-06T21:08:28.833Z,7.36
2022-12-06T21:11:21.610Z,7.35
2022-12-06T21:13:42.174Z,7.19
2022-12-06T21:16:08.991Z,7.32
2022-12-06T21:18:35.747Z,7.53
2022-12-06T21:21:02.398Z,7.39
2022-12-06T21:23:29.035Z,7.26
2022-12-06T21:25:55.634Z,7.29
2022-12-06T21:28:22.283Z,7.36
2022-12-06T21:30:49.041Z,7.49
2022-12-06T21:33:15.799Z,7.68
2022-12-06T21:35:42.420Z,7.77
2022-12-06T21:38:09.036Z,7.87
2022-12-06T21:40:35.712Z,7.77
2022-12-06T21:43:02.408Z,7.82
2022-12-06T21:45:29.049Z,7.95
2022-12-06T21:47:55.699Z,7.94
2022-12-06T21:50:22.315Z,7.71
2022-12-06T21:52:48.979Z,7.72
2022-12-06T21:55:15.668Z,7.68
2022-12-06T21:57:42.340Z,7.73
2022-12-06T22:00:08.957Z,7.92
2022-12-06T22:02:35.622Z,8.06
2022-12-06T22:05:02.260Z,7.88
2022-12-06T22:07:28.934Z,7.88
2022-12-06T22:09:55.553Z,7.90
2022-12-06T22:12:22.142Z,7.90
2022-12-06T22:14:48.756Z,7.81
2022-12-06T22:17:15.363Z,7.87
2022-12-06T22:19:41.968Z,8.06
2022-12-06T22:22:08.624Z,8.09
2022-12-06T22:24:35.257Z,8.20
2022-12-06T22:27:01.916Z,8.23
2022-12-06T22:29:28.553Z,8.19
2022-12-06T22:31:55.225Z,7.93
2022-12-06T22:34:21.846Z,7.66
2022-12-06T22:36:48.494Z,7.61
2022-12-06T22:39:15.187Z,7.84
2022-12-06T22:41:41.865Z,7.87
2022-12-06T22:44:08.516Z,7.73
2022-12-06T22:46:35.243Z,7.93
2022-12-06T22:49:01.953Z,8.17
2022-12-06T22:51:28.585Z,8.32
2022-12-06T22:53:55.294Z,8.30
2022-12-06T22:56:21.977Z,7.93
2022-12-06T22:58:48.600Z,8.16
2022-12-06T23:01:16.798Z,7.95
2022-12-06T23:03:43.815Z,8.12
2022-12-06T23:06:10.466Z,8.27
2022-12-06T23:08:37.137Z,8.27
2022-12-06T23:11:03.888Z,8.28
2022-12-06T23:13:30.530Z,8.36
2022-12-06T23:15:57.207Z,8.23
2022-12-06T23:18:23.832Z,8.07
2022-12-06T23:20:50.460Z,7.90
2022-12-06T23:23:17.065Z,8.07
2022-12-06T23:25:43.722Z,7.79
2022-12-06T23:28:10.394Z,8.11
2022-12-06T23:30:37.037Z,7.98
2022-12-06T23:33:03.725Z,8.01
2022-12-06T23:35:30.334Z,8.10
2022-12-06T23:37:56.967Z,8.21
2022-12-06T23:40:23.626Z,8.27
2022-12-06T23:42:50.309Z,8.19
2022-12-06T23:45:16.920Z,8.24
2022-12-06T23:47:43.530Z,8.26
2022-12-06T23:50:10.279Z,8.25
2022-12-06T23:52:36.886Z,8.06
2022-12-06T23:55:03.541Z,7.89
2022-12-06T23:57:30.130Z,7.94
2022-12-06T23:59:56.736Z,7.83
